createdAt,value
2019-02-10T00:00:55.581Z,1.82
2019-02-10T00:03:23.996Z,2.30
2019-02-10T00:05:52.601Z,2.37
2019-02-10T00:08:21.029Z,2.15
2019-02-10T00:10:49.597Z,1.90
2019-02-10T00:13:25.708Z,1.77
2019-02-10T00:15:54.481Z,1.72
2019-02-10T00:18:23.345Z,2.00
2019-02-10T00:20:51.856Z,1.77
2019-02-10T00:23:20.268Z,2.30
2019-02-10T00:25:49.001Z,2.65
2019-02-10T00:28:17.686Z,1.80
2019-02-10T00:30:46.495Z,2.50
2019-02-10T00:33:14.905Z,1.62
2019-02-10T00:35:43.349Z,1.85
2019-02-10T00:38:11.781Z,2.22
2019-02-10T00:40:42.037Z,1.32
2019-02-10T00:43:10.725Z,2.17
2019-02-10T00:45:39.162Z,2.08
2019-02-10T00:48:07.909Z,2.37
2019-02-10T00:50:36.698Z,1.87
2019-02-10T00:53:07.916Z,1.72
2019-02-10T00:55:37.988Z,1.77
2019-02-10T00:58:08.269Z,1.90
2019-02-10T01:00:39.717Z,2.20
2019-02-10T01:03:08.128Z,2.70
2019-02-10T01:05:36.561Z,1.65
2019-02-10T01:08:05.150Z,2.55
2019-02-10T01:10:33.581Z,1.87
2019-02-10T01:13:02.434Z,2.20
2019-02-10T01:15:30.873Z,2.12
2019-02-10T01:17:59.357Z,2.10
2019-02-10T01:20:28.091Z,2.60
2019-02-10T01:22:59.622Z,2.60
2019-02-10T01:25:28.331Z,2.00
2019-02-10T01:27:56.983Z,1.90
2019-02-10T01:30:25.743Z,2.00
2019-02-10T01:32:54.506Z,2.00
2019-02-10T01:35:23.324Z,2.05
2019-02-10T01:37:51.833Z,2.58
2019-02-10T01:40:20.402Z,1.50
2019-02-10T01:42:48.824Z,2.10
2019-02-10T01:45:17.245Z,1.75
2019-02-10T01:47:45.689Z,2.92
2019-02-10T01:50:14.100Z,2.62
2019-02-10T01:52:42.854Z,3.50
2019-02-10T01:55:14.538Z,1.37
2019-02-10T01:57:44.673Z,2.92
2019-02-10T02:00:15.502Z,2.27
2019-02-10T02:02:43.937Z,1.95
2019-02-10T02:05:12.731Z,2.60
2019-02-10T02:07:41.161Z,2.30
2019-02-10T02:10:12.341Z,2.15
2019-02-10T02:12:41.073Z,1.55
2019-02-10T02:15:12.125Z,2.25
2019-02-10T02:17:40.873Z,1.80
2019-02-10T02:20:10.838Z,2.40
2019-02-10T02:22:39.348Z,2.33
2019-02-10T02:25:10.741Z,2.15
2019-02-10T02:27:39.175Z,1.67
2019-02-10T02:30:12.611Z,1.98
2019-02-10T02:32:41.052Z,1.77
2019-02-10T02:35:09.805Z,2.12
2019-02-10T02:37:38.651Z,1.70
2019-02-10T02:40:11.477Z,2.05
2019-02-10T02:42:40.281Z,2.45
2019-02-10T02:45:10.934Z,2.40
2019-02-10T02:47:39.755Z,2.92
2019-02-10T02:50:10.498Z,1.90
2019-02-10T02:52:39.267Z,1.80
2019-02-10T02:55:09.690Z,2.20
2019-02-10T02:57:39.213Z,1.80
2019-02-10T03:00:09.944Z,2.35
2019-02-10T03:02:38.935Z,2.17
2019-02-10T03:05:10.510Z,2.10
2019-02-10T03:07:39.009Z,2.12
2019-02-10T03:10:08.765Z,2.58
2019-02-10T03:12:37.199Z,2.30
2019-02-10T03:15:08.303Z,1.90
2019-02-10T03:17:37.370Z,2.20
2019-02-10T03:20:07.517Z,2.62
2019-02-10T03:22:36.245Z,1.80
2019-02-10T03:25:06.325Z,2.00
2019-02-10T03:27:35.128Z,1.62
2019-02-10T03:30:04.677Z,2.05
2019-02-10T03:32:33.431Z,1.82
2019-02-10T03:35:01.844Z,2.00
2019-02-10T03:37:30.286Z,1.65
2019-02-10T03:39:58.962Z,1.57
2019-02-10T03:42:27.666Z,2.33
2019-02-10T03:44:56.079Z,1.90
2019-02-10T03:47:24.508Z,2.25
2019-02-10T03:49:53.197Z,2.08
2019-02-10T03:52:21.691Z,1.75
2019-02-10T03:54:50.466Z,1.95
2019-02-10T03:57:20.339Z,2.05
2019-02-10T03:59:48.771Z,2.10
2019-02-10T04:02:17.573Z,1.72
2019-02-10T04:04:46.338Z,2.00
2019-02-10T04:07:14.770Z,2.20
2019-02-10T04:09:43.501Z,1.85
2019-02-10T04:12:11.923Z,1.75
2019-02-10T04:14:40.357Z,1.65
2019-02-10T04:17:09.033Z,1.67
2019-02-10T04:19:37.466Z,1.92
2019-02-10T04:22:06.222Z,1.67
2019-02-10T04:24:34.666Z,1.87
2019-02-10T04:27:03.074Z,1.62
2019-02-10T04:29:31.781Z,1.95
2019-02-10T04:32:00.198Z,1.80
2019-02-10T04:34:28.635Z,2.10
2019-02-10T04:36:57.061Z,1.60
2019-02-10T04:39:25.503Z,1.42
2019-02-10T04:41:53.913Z,1.75
2019-02-10T04:44:22.673Z,1.60
2019-02-10T04:46:51.112Z,2.10
2019-02-10T04:49:19.618Z,1.85
2019-02-10T04:51:48.099Z,1.77
2019-02-10T04:54:16.535Z,2.85
2019-02-10T04:56:45.268Z,1.80
2019-02-10T04:59:13.702Z,2.00
2019-02-10T05:01:42.241Z,1.90
2019-02-10T05:04:10.692Z,2.30
2019-02-10T05:06:39.113Z,1.30
2019-02-10T05:09:07.878Z,1.50
2019-02-10T05:11:36.369Z,1.72
2019-02-10T05:14:05.156Z,2.10
2019-02-10T05:16:33.571Z,1.55
2019-02-10T05:19:02.007Z,1.70
2019-02-10T05:21:30.418Z,1.40
2019-02-10T05:24:03.470Z,1.67
2019-02-10T05:26:29.318Z,1.40
2019-02-10T05:28:58.086Z,1.60
2019-02-10T05:31:26.774Z,1.80
2019-02-10T05:33:55.269Z,1.30
2019-02-10T05:36:23.684Z,1.67
2019-02-10T05:38:52.121Z,1.92
2019-02-10T05:41:20.803Z,2.17
2019-02-10T05:43:49.413Z,2.00
2019-02-10T05:46:17.838Z,1.80
2019-02-10T05:48:46.550Z,1.40
2019-02-10T05:51:15.260Z,1.82
2019-02-10T05:53:44.025Z,1.70
2019-02-10T05:56:12.821Z,1.90
2019-02-10T05:58:41.234Z,1.72
2019-02-10T06:01:46.642Z,1.57
2019-02-10T06:04:15.081Z,1.75
2019-02-10T06:06:43.585Z,1.40
2019-02-10T06:09:12.007Z,1.50
2019-02-10T06:11:40.776Z,1.30
2019-02-10T06:14:09.476Z,1.60
2019-02-10T06:16:37.912Z,1.30
2019-02-10T06:19:06.326Z,1.40
2019-02-10T06:21:34.761Z,1.50
2019-02-10T06:24:03.179Z,1.45
2019-02-10T06:26:31.971Z,1.57
2019-02-10T06:29:00.388Z,1.10
2019-02-10T06:31:28.817Z,1.35
2019-02-10T06:33:57.232Z,1.32
2019-02-10T06:36:25.669Z,1.92
2019-02-10T06:38:54.377Z,1.95
2019-02-10T06:41:22.809Z,1.80
2019-02-10T06:43:51.549Z,1.55
2019-02-10T06:46:19.977Z,1.50
2019-02-10T06:48:48.389Z,1.52
2019-02-10T06:51:16.821Z,1.50
2019-02-10T06:53:45.241Z,1.47
2019-02-10T06:56:13.771Z,1.67
2019-02-10T06:58:42.184Z,1.75
2019-02-10T07:01:27.411Z,1.47
2019-02-10T07:03:59.206Z,1.45
2019-02-10T07:06:27.641Z,1.55
2019-02-10T07:08:56.329Z,1.52
2019-02-10T07:11:25.014Z,1.37
2019-02-10T07:13:56.024Z,1.35
2019-02-10T07:16:36.145Z,1.32
2019-02-10T07:19:39.352Z,1.90
2019-02-10T07:22:42.781Z,1.57
2019-02-10T07:25:17.197Z,1.52
2019-02-10T07:28:04.666Z,1.20
2019-02-10T07:30:39.190Z,1.50
2019-02-10T07:33:10.729Z,1.55
2019-02-10T07:35:57.476Z,1.50
2019-02-10T07:38:50.097Z,1.40
2019-02-10T07:41:39.454Z,1.65
2019-02-10T07:44:13.827Z,1.40
2019-02-10T07:47:05.629Z,1.00
2019-02-10T07:49:39.861Z,2.25
2019-02-10T07:52:11.889Z,1.77
2019-02-10T07:55:06.026Z,1.40
2019-02-10T07:57:40.153Z,1.52
2019-02-10T08:00:14.503Z,1.57
2019-02-10T08:03:04.191Z,1.45
2019-02-10T08:05:38.380Z,1.40
2019-02-10T08:08:15.678Z,1.37
2019-02-10T08:10:55.816Z,1.50
2019-02-10T08:13:46.937Z,1.70
2019-02-10T08:16:30.421Z,1.50
2019-02-10T08:19:21.517Z,1.12
2019-02-10T08:21:55.991Z,1.30
2019-02-10T08:24:36.701Z,1.62
2019-02-10T08:27:11.814Z,1.55
2019-02-10T08:29:55.239Z,1.40
2019-02-10T08:32:38.550Z,1.52
2019-02-10T08:35:25.150Z,1.40
2019-02-10T08:38:14.489Z,1.02
2019-02-10T08:40:48.853Z,1.50
2019-02-10T08:43:52.446Z,1.30
2019-02-10T08:46:38.534Z,1.27
2019-02-10T08:49:29.937Z,1.70
2019-02-10T08:52:28.873Z,1.10
2019-02-10T08:54:58.147Z,1.37
2019-02-10T08:57:26.568Z,1.45
2019-02-10T08:59:55.263Z,1.95
2019-02-10T09:02:23.688Z,1.30
2019-02-10T09:04:52.113Z,1.50
2019-02-10T09:07:20.818Z,1.60
2019-02-10T09:09:49.244Z,1.25
2019-02-10T09:12:17.661Z,1.30
2019-02-10T09:14:46.076Z,1.50
2019-02-10T09:17:14.514Z,1.10
2019-02-10T09:19:43.248Z,1.42
2019-02-10T09:22:11.668Z,1.40
2019-02-10T09:24:40.085Z,1.20
2019-02-10T09:27:08.521Z,1.40
2019-02-10T09:29:36.948Z,1.10
2019-02-10T09:32:05.734Z,1.05
2019-02-10T09:34:34.154Z,1.00
2019-02-10T09:37:02.863Z,0.90
2019-02-10T09:39:31.274Z,0.90
2019-02-10T09:42:00.337Z,0.85
2019-02-10T09:44:29.057Z,1.00
2019-02-10T09:46:57.859Z,0.85
2019-02-10T09:49:26.285Z,1.02
2019-02-10T09:51:54.966Z,0.70
2019-02-10T09:54:23.392Z,0.82
2019-02-10T09:56:52.191Z,0.80
2019-02-10T09:59:20.673Z,1.10
2019-02-10T10:01:49.113Z,1.20
2019-02-10T10:04:17.773Z,1.00
2019-02-10T10:06:46.215Z,0.85
2019-02-10T10:09:19.333Z,0.93
2019-02-10T10:11:45.065Z,1.05
2019-02-10T10:14:13.806Z,0.98
2019-02-10T10:16:42.604Z,1.00
2019-02-10T10:19:11.281Z,0.90
2019-02-10T10:21:40.091Z,1.10
2019-02-10T10:24:08.884Z,0.78
2019-02-10T10:26:37.675Z,1.10
2019-02-10T10:29:06.435Z,1.50
2019-02-10T10:31:34.881Z,1.20
2019-02-10T10:34:03.571Z,1.20
2019-02-10T10:36:32.001Z,1.20
2019-02-10T10:39:00.770Z,1.42
2019-02-10T10:41:29.218Z,1.17
2019-02-10T10:43:58.206Z,1.17
2019-02-10T10:46:26.661Z,0.90
2019-02-10T10:48:55.965Z,1.25
2019-02-10T10:51:24.713Z,1.45
2019-02-10T10:53:53.524Z,1.30
2019-02-10T10:56:21.936Z,1.02
2019-02-10T10:58:50.382Z,0.88
2019-02-10T11:01:25.149Z,1.10
2019-02-10T11:03:49.290Z,1.17
2019-02-10T11:06:17.708Z,1.20
2019-02-10T11:08:46.145Z,0.90
2019-02-10T11:11:15.162Z,1.12
2019-02-10T11:13:43.616Z,0.90
2019-02-10T11:16:12.053Z,1.10
2019-02-10T11:18:40.501Z,1.10
2019-02-10T11:21:08.924Z,1.00
2019-02-10T11:23:37.357Z,1.60
2019-02-10T11:26:05.783Z,1.30
2019-02-10T11:28:34.208Z,0.95
2019-02-10T11:31:02.620Z,1.30
2019-02-10T11:33:32.505Z,1.10
2019-02-10T11:36:00.925Z,1.45
2019-02-10T11:38:29.365Z,1.82
2019-02-10T11:40:58.142Z,1.20
2019-02-10T11:43:27.634Z,1.10
2019-02-10T11:45:56.064Z,1.40
2019-02-10T11:48:24.502Z,1.30
2019-02-10T11:51:15.717Z,0.80
2019-02-10T11:53:44.158Z,1.10
2019-02-10T11:56:12.589Z,1.00
2019-02-10T11:58:41.365Z,1.12
2019-02-10T12:01:09.785Z,1.10
2019-02-10T12:03:38.538Z,1.20
2019-02-10T12:06:06.966Z,1.15
2019-02-10T12:08:35.971Z,0.80
2019-02-10T12:11:04.509Z,0.93
2019-02-10T12:13:32.953Z,0.90
2019-02-10T12:16:01.369Z,1.17
2019-02-10T12:18:29.811Z,1.00
2019-02-10T12:20:58.949Z,1.05
2019-02-10T12:23:27.739Z,0.95
2019-02-10T12:25:56.501Z,1.22
2019-02-10T12:28:25.293Z,1.17
2019-02-10T12:30:53.722Z,0.90
2019-02-10T12:33:22.229Z,1.07
2019-02-10T12:35:58.020Z,1.10
2019-02-10T12:38:20.809Z,0.88
2019-02-10T12:40:49.568Z,1.05
2019-02-10T12:43:18.339Z,1.15
2019-02-10T12:45:46.757Z,0.95
2019-02-10T12:48:15.198Z,0.98
2019-02-10T12:50:43.627Z,1.00
2019-02-10T12:53:12.079Z,1.00
2019-02-10T12:55:40.841Z,0.72
2019-02-10T12:58:12.296Z,0.90
2019-02-10T13:00:40.877Z,1.20
2019-02-10T13:03:09.374Z,0.90
2019-02-10T13:05:37.813Z,1.00
2019-02-10T13:08:07.877Z,0.90
2019-02-10T13:10:36.314Z,1.20
2019-02-10T13:13:04.821Z,1.52
2019-02-10T13:15:35.145Z,0.95
2019-02-10T13:18:03.556Z,1.02
2019-02-10T13:20:34.844Z,0.98
2019-02-10T13:23:03.562Z,1.17
2019-02-10T13:25:34.245Z,1.30
2019-02-10T13:28:02.669Z,1.02
2019-02-10T13:30:31.113Z,1.50
2019-02-10T13:32:59.946Z,1.60
2019-02-10T13:35:28.386Z,1.15
2019-02-10T13:37:56.801Z,1.50
2019-02-10T13:40:25.305Z,1.32
2019-02-10T13:42:54.083Z,1.15
2019-02-10T13:45:22.509Z,1.30
2019-02-10T13:47:51.591Z,1.20
2019-02-10T13:50:20.589Z,1.20
2019-02-10T13:52:49.153Z,1.20
2019-02-10T13:55:20.592Z,1.65
2019-02-10T13:57:49.015Z,1.17
2019-02-10T14:00:24.101Z,1.40
2019-02-10T14:02:52.532Z,1.95
2019-02-10T14:05:21.206Z,1.42
2019-02-10T14:07:51.022Z,1.32
2019-02-10T14:10:25.705Z,1.20
2019-02-10T14:12:50.321Z,1.75
2019-02-10T14:15:20.055Z,1.00
2019-02-10T14:17:48.468Z,1.30
2019-02-10T14:20:19.292Z,1.20
2019-02-10T14:22:47.718Z,1.60
2019-02-10T14:25:16.155Z,1.40
2019-02-10T14:27:44.657Z,1.40
2019-02-10T14:30:17.756Z,1.80
2019-02-10T14:32:46.173Z,0.98
2019-02-10T14:35:14.672Z,1.10
2019-02-10T14:37:44.736Z,1.50
2019-02-10T14:40:13.410Z,1.25
2019-02-10T14:42:42.105Z,1.30
2019-02-10T14:45:15.709Z,1.00
2019-02-10T14:47:47.007Z,1.30
2019-02-10T14:50:19.155Z,0.90
2019-02-10T14:52:48.027Z,1.20
2019-02-10T14:55:16.474Z,1.02
2019-02-10T14:57:45.182Z,1.57
2019-02-10T15:00:15.415Z,0.98
2019-02-10T15:02:44.193Z,1.10
2019-02-10T15:05:12.680Z,0.90
2019-02-10T15:07:41.466Z,0.90
2019-02-10T15:10:18.561Z,0.80
2019-02-10T15:12:47.338Z,1.00
2019-02-10T15:15:15.987Z,1.12
2019-02-10T15:17:44.913Z,1.10
2019-02-10T15:20:13.819Z,1.10
2019-02-10T15:22:42.722Z,1.15
2019-02-10T15:25:13.525Z,1.22
2019-02-10T15:27:42.030Z,1.30
2019-02-10T15:30:13.049Z,1.30
2019-02-10T15:32:41.555Z,1.45
2019-02-10T15:35:10.761Z,1.30
2019-02-10T15:37:39.212Z,1.40
2019-02-10T15:40:12.159Z,1.27
2019-02-10T15:42:40.672Z,1.92
2019-02-10T15:45:11.515Z,1.37
2019-02-10T15:47:40.016Z,1.25
2019-02-10T15:50:10.749Z,1.10
2019-02-10T15:52:39.181Z,1.50
2019-02-10T15:55:10.201Z,1.50
2019-02-10T15:57:38.632Z,1.20
2019-02-10T16:00:19.405Z,1.32
2019-02-10T16:02:48.198Z,1.45
2019-02-10T16:05:16.897Z,1.22
2019-02-10T16:07:45.461Z,1.40
2019-02-10T16:10:13.993Z,1.60
2019-02-10T16:12:42.415Z,1.55
2019-02-10T16:15:12.195Z,1.20
2019-02-10T16:17:41.690Z,1.87
2019-02-10T16:20:12.454Z,1.45
2019-02-10T16:22:40.961Z,1.60
2019-02-10T16:25:09.649Z,1.45
2019-02-10T16:27:38.109Z,1.50
2019-02-10T16:30:09.868Z,1.40
2019-02-10T16:32:38.297Z,1.80
2019-02-10T16:35:08.078Z,1.57
2019-02-10T16:37:40.930Z,1.60
2019-02-10T16:40:20.095Z,1.72
2019-02-10T16:42:48.566Z,1.52
2019-02-10T16:45:17.054Z,1.52
2019-02-10T16:47:45.549Z,1.57
2019-02-10T16:50:15.670Z,1.70
2019-02-10T16:52:44.150Z,1.60
2019-02-10T16:55:19.722Z,1.60
2019-02-10T16:57:48.216Z,1.62
2019-02-10T17:00:17.586Z,1.62
2019-02-10T17:02:46.392Z,1.30
2019-02-10T17:05:15.174Z,1.07
2019-02-10T17:07:43.624Z,1.27
2019-02-10T17:10:20.106Z,0.90
2019-02-10T17:12:48.993Z,0.90
2019-02-10T17:15:17.415Z,1.07
2019-02-10T17:17:46.265Z,0.68
2019-02-10T17:20:15.826Z,0.78
2019-02-10T17:22:44.254Z,0.55
2019-02-10T17:25:22.069Z,0.50
2019-02-10T17:27:50.485Z,0.60
2019-02-10T17:30:18.927Z,0.50
2019-02-10T17:32:47.421Z,0.80
2019-02-10T17:35:16.104Z,1.05
2019-02-10T17:37:44.576Z,0.60
2019-02-10T17:40:21.993Z,0.80
2019-02-10T17:42:50.405Z,0.75
2019-02-10T17:45:18.842Z,0.47
2019-02-10T17:47:47.257Z,0.60
2019-02-10T17:50:15.694Z,0.50
2019-02-10T17:52:46.969Z,0.53
2019-02-10T17:55:15.658Z,0.60
2019-02-10T17:57:44.068Z,0.60
2019-02-10T18:00:18.409Z,0.68
2019-02-10T18:02:47.118Z,0.50
2019-02-10T18:05:15.881Z,0.50
2019-02-10T18:07:44.297Z,0.60
2019-02-10T18:10:15.422Z,0.50
2019-02-10T18:12:44.214Z,0.55
2019-02-10T18:15:14.356Z,0.60
2019-02-10T18:17:59.446Z,0.60
2019-02-10T18:20:35.102Z,0.80
2019-02-10T18:23:23.589Z,0.70
2019-02-10T18:26:10.260Z,0.47
2019-02-10T18:28:52.705Z,0.70
2019-02-10T18:31:41.686Z,0.95
2019-02-10T18:34:14.678Z,0.60
2019-02-10T18:36:47.709Z,0.72
2019-02-10T18:39:20.856Z,0.60
2019-02-10T18:41:51.004Z,0.60
2019-02-10T18:44:27.057Z,0.75
2019-02-10T18:47:00.105Z,0.50
2019-02-10T18:49:45.774Z,0.50
2019-02-10T18:52:21.912Z,0.80
2019-02-10T18:54:52.435Z,0.70
2019-02-10T18:57:22.708Z,0.90
2019-02-10T18:59:53.595Z,0.50
2019-02-10T19:02:35.407Z,0.62
2019-02-10T19:05:14.977Z,0.68
2019-02-10T19:07:56.943Z,0.75
2019-02-10T19:10:27.314Z,0.50
2019-02-10T19:12:57.369Z,0.70
2019-02-10T19:15:27.509Z,0.50
2019-02-10T19:18:09.542Z,0.60
2019-02-10T19:20:39.966Z,0.70
2019-02-10T19:23:10.045Z,0.60
2019-02-10T19:25:46.656Z,0.40
2019-02-10T19:28:19.870Z,0.65
2019-02-10T19:30:50.279Z,0.90
2019-02-10T19:33:20.349Z,0.60
2019-02-10T19:35:53.398Z,0.70
2019-02-10T19:38:23.502Z,0.60
2019-02-10T19:41:08.769Z,0.80
2019-02-10T19:43:44.761Z,0.60
2019-02-10T19:46:27.097Z,0.60
2019-02-10T19:49:05.934Z,0.50
2019-02-10T19:51:36.347Z,0.60
2019-02-10T19:54:09.757Z,0.60
2019-02-10T19:56:45.429Z,0.68
2019-02-10T19:59:33.649Z,0.60
2019-02-10T20:02:04.013Z,0.88
2019-02-10T20:04:34.436Z,0.70
2019-02-10T20:07:19.238Z,0.90
2019-02-10T20:09:52.337Z,0.62
2019-02-10T20:12:28.205Z,0.57
2019-02-10T20:14:58.565Z,0.60
2019-02-10T20:17:28.909Z,0.60
2019-02-10T20:19:58.985Z,0.60
2019-02-10T20:22:29.374Z,0.68
2019-02-10T20:24:59.473Z,0.85
2019-02-10T20:27:32.261Z,0.62
2019-02-10T20:30:02.412Z,0.60
2019-02-10T20:32:48.929Z,0.60
2019-02-10T20:35:21.805Z,0.65
2019-02-10T20:37:52.174Z,0.60
2019-02-10T20:40:22.598Z,0.60
2019-02-10T20:42:52.695Z,0.70
2019-02-10T20:45:39.330Z,0.90
2019-02-10T20:48:15.553Z,0.95
2019-02-10T20:51:01.881Z,0.70
2019-02-10T20:53:51.181Z,0.60
2019-02-10T20:56:26.481Z,0.60
2019-02-10T20:58:56.617Z,0.70
2019-02-10T21:01:30.586Z,0.78
2019-02-10T21:04:09.687Z,0.60
2019-02-10T21:06:42.585Z,0.70
2019-02-10T21:09:15.958Z,0.70
2019-02-10T21:12:04.269Z,0.80
2019-02-10T21:14:37.397Z,0.50
2019-02-10T21:17:23.900Z,0.70
2019-02-10T21:20:12.490Z,0.60
2019-02-10T21:22:45.650Z,0.50
2019-02-10T21:25:21.279Z,0.70
2019-02-10T21:28:03.581Z,0.85
2019-02-10T21:30:49.956Z,0.70
2019-02-10T21:33:20.438Z,0.78
2019-02-10T21:35:50.509Z,0.65
2019-02-10T21:38:26.814Z,0.53
2019-02-10T21:41:07.373Z,0.50
2019-02-10T21:43:39.420Z,0.60
2019-02-10T21:46:09.482Z,0.60
2019-02-10T21:48:40.317Z,0.50
2019-02-10T21:51:10.461Z,0.60
2019-02-10T21:53:38.978Z,0.72
2019-02-10T21:56:07.406Z,0.65
2019-02-10T21:58:35.821Z,0.70
2019-02-10T22:01:04.734Z,0.85
2019-02-10T22:03:33.672Z,0.80
2019-02-10T22:06:02.112Z,0.70
2019-02-10T22:08:30.537Z,0.70
2019-02-10T22:10:58.948Z,0.60
2019-02-10T22:13:28.815Z,0.50
2019-02-10T22:15:57.209Z,0.50
2019-02-10T22:18:31.405Z,0.40
2019-02-10T22:21:02.903Z,0.55
2019-02-10T22:23:31.637Z,0.60
2019-02-10T22:26:00.069Z,0.50
2019-02-10T22:28:34.481Z,0.88
2019-02-10T22:31:03.043Z,0.50
2019-02-10T22:33:31.527Z,0.40
2019-02-10T22:36:00.390Z,0.60
2019-02-10T22:38:29.219Z,0.53
2019-02-10T22:40:57.949Z,0.88
2019-02-10T22:43:33.043Z,0.57
2019-02-10T22:46:01.942Z,0.60
2019-02-10T22:48:35.920Z,0.50
2019-02-10T22:51:04.421Z,0.65
2019-02-10T22:53:32.841Z,0.50
2019-02-10T22:56:01.537Z,0.60
2019-02-10T22:58:29.957Z,0.55
2019-02-10T23:01:06.516Z,0.50
2019-02-10T23:03:34.488Z,0.40
2019-02-10T23:06:03.394Z,0.50
2019-02-10T23:08:32.097Z,0.60
2019-02-10T23:11:02.201Z,0.65
2019-02-10T23:13:31.056Z,0.40
2019-02-10T23:15:59.589Z,0.40
2019-02-10T23:18:29.859Z,0.50
2019-02-10T23:21:00.097Z,0.50
2019-02-10T23:23:28.869Z,0.60
2019-02-10T23:25:57.311Z,0.60
2019-02-10T23:28:26.030Z,0.60
2019-02-10T23:30:54.822Z,0.50
2019-02-10T23:33:33.541Z,0.70
2019-02-10T23:36:02.350Z,0.50
2019-02-10T23:38:31.133Z,0.60
2019-02-10T23:40:59.542Z,0.50
2019-02-10T23:43:27.981Z,0.60
2019-02-10T23:45:56.673Z,0.60
2019-02-10T23:48:25.106Z,0.60
2019-02-10T23:50:53.841Z,0.60
2019-02-10T23:53:22.258Z,0.60
2019-02-10T23:55:51.005Z,0.68
2019-02-10T23:58:19.674Z,0.68
